Huvudsida
METAR-TAF:

METAR-TAF

Flygplatser :

Magadan, Ryssland

latitud: 59-33N, longitud: 150-47E, höjd: 118 m

Aktuellt väderrapport

Denna rapport gjordes för 35 minuter sedan, klockan 06:00 UTC
Vind 12 kt från syd/sydväst
Temperatur 26°C
Fuktighet 54%
Tryck 1007 hPa
Sikt 10 km eller mer
Spridda moln på en höjd av 4000 ft, Cumulonimbus.

METAR: UHMM 230600Z 21006MPS 9999 SCT040CB 26/16 Q1007 R10/70D NOSIG RMK QFE741 R28/26005MPS

Tid: 17:35 (06:35 UTC)

Väderprognos

Denna rapport gjordes för 1 timme och 45 minuter sedan, klockan 04:50 UTC
Prognos gäller från 23 kl. 06 UTC till 24 kl. 12 UTC
Vind 6 kt från väst/sydväst i byarna ända upp till 16 kt
Sikt 10 km eller mer
Brutna moln på en höjd av 4000 ft, Cumulonimbus.
Temporärt
från 23 kl. 12 UTC till 23 kl. 22 UTC
Sikt: 0500 m
på en höjd av 400 ft
dimma,

TAF: UHMM 230450Z 2306/2412 24003G08MPS 9999 BKN040CB TEMPO 2312/2322 0500 FG VV004

Aktuella väderrapporter och prognoser från 4000 flygplatser (METAR- och TAF-rapporter).

De tillgängliga stationerna syns som gula och röda prickar på kartan.

För musen över prickarna för att se namnen på stationerna.

Klicka sedan för att få väderrapporter och prognoser.

För att ändra kartan: Klicka på de gröna knapparna med ett svart kors på för att zooma in; den gröna knappen med ett streck på för att zooma ut; eller på de gröna pilarna för angränsande kartor.


METAR-TAF: